Lake Tahoe Airport
KTVL : now visible

Airfield :











YOU CAN JOIN US ON...

 
LOGIN :

Register | Disclaimer

   EN    FR    IT 

 









Legend :    VFR   Marginal VFR   IFR   Intensive IFR   Very Intensive IFR
Visi :
Ceiling :
>= 8 km
>= 3000ft
5 to 8 km
1000 to 3000 ft
1500m to 5 km
500 to 1000 ft
800 to 1500m
200 to 500 ft
< 800m
< 200 ft
Symbols :   Thunderstorms  Fog  Heavy snow  Heavy precipitations  Wind > 20 kt






- Airport Elevation : 6264 ft
- IATA code : TVL


KTVL - Lake Tahoe

CURRENT METAR :
  • 272153Z AUTO 19012G19KT 10SM FEW120 07/M04 A3033 RMK AO2 SLP264 T00671039

EXPIRED METARs :
  • 272053Z AUTO 17009G18KT 10SM CLR 07/M02 A3034 RMK AO2 SLP266 T00671017 58002
  • 271953Z AUTO 00000KT 10SM FEW050 07/M03 A3036 RMK AO2 SLP276 T00671033

TAF KTVL
Valid from the 27 at 18:00 until the 28 at 18:00 UTC


271720Z 2718/2818 VRB04KT P6SM BKN050 BKN100
FM271900 19007KT P6SM SCT045 BKN120
FM280200 VRB03KT P6SM BKN100



MET'MAP, your aeronautical weather chart ! - Copyright ORBIFLY December 2007 - Disclaimer

ORBIFLY MET'MAP TEAM :

Programming & Development : Alexandra Zaïnal
Concept & original design : Baudouin d'Aumeries
Assistance for programming : Marc-Olivier Méhu
Technical & hardware support : Manuel Goepfert

Contact : metmap@orbifly.com




SOURCES & CREDITS :

   NOAA       Earth
Advisory